createdAt,value
2017-08-29T00:01:13.378Z,16.43
2017-08-29T00:03:39.632Z,16.38
2017-08-29T00:06:05.869Z,16.30
2017-08-29T00:08:32.077Z,16.19
2017-08-29T00:10:58.354Z,16.18
2017-08-29T00:13:24.568Z,16.26
2017-08-29T00:15:50.796Z,16.13
2017-08-29T00:18:17.259Z,16.12
2017-08-29T00:20:43.491Z,15.99
2017-08-29T00:23:09.714Z,16.03
2017-08-29T00:25:36.245Z,16.06
2017-08-29T00:28:02.454Z,15.98
2017-08-29T00:30:28.696Z,16.08
2017-08-29T00:32:55.137Z,16.03
2017-08-29T00:35:21.395Z,15.96
2017-08-29T00:37:47.645Z,15.95
2017-08-29T00:40:13.989Z,15.89
2017-08-29T00:42:40.239Z,16.04
2017-08-29T00:45:06.476Z,16.05
2017-08-29T00:47:33.022Z,16.05
2017-08-29T00:49:59.284Z,15.93
2017-08-29T00:52:25.530Z,15.96
2017-08-29T00:54:51.782Z,15.89
2017-08-29T00:57:18.037Z,15.85
2017-08-29T00:59:44.565Z,15.83
2017-08-29T01:02:10.830Z,15.77
2017-08-29T01:04:37.058Z,15.88
2017-08-29T01:07:03.666Z,15.89
2017-08-29T01:09:29.914Z,15.90
2017-08-29T01:11:56.170Z,15.73
2017-08-29T01:14:22.418Z,15.77
2017-08-29T01:16:48.662Z,15.64
2017-08-29T01:19:14.907Z,15.61
2017-08-29T01:21:41.185Z,15.64
2017-08-29T01:24:07.443Z,15.76
2017-08-29T01:26:33.676Z,15.71
2017-08-29T01:28:59.942Z,15.64
2017-08-29T01:31:26.218Z,15.57
2017-08-29T01:33:52.445Z,15.64
2017-08-29T01:36:18.705Z,15.59
2017-08-29T01:38:44.920Z,15.56
2017-08-29T01:41:11.155Z,15.47
2017-08-29T01:43:37.420Z,15.49
2017-08-29T01:46:03.663Z,15.49
2017-08-29T01:48:29.904Z,15.44
2017-08-29T01:50:56.221Z,15.47
2017-08-29T01:53:22.467Z,15.48
2017-08-29T01:55:48.690Z,15.38
2017-08-29T01:58:15.256Z,15.36
2017-08-29T02:00:41.484Z,15.33
2017-08-29T02:03:07.738Z,15.35
2017-08-29T02:05:33.996Z,15.37
2017-08-29T02:08:00.347Z,15.41
2017-08-29T02:10:26.575Z,15.20
2017-08-29T02:12:52.920Z,15.26
2017-08-29T02:15:19.131Z,15.28
2017-08-29T02:17:45.344Z,15.26
2017-08-29T02:20:11.596Z,15.21
2017-08-29T02:22:37.796Z,15.21
2017-08-29T02:25:04.016Z,15.11
2017-08-29T02:27:30.428Z,15.03
2017-08-29T02:29:56.647Z,15.15
2017-08-29T02:32:22.862Z,15.09
2017-08-29T02:34:49.126Z,15.10
2017-08-29T02:37:15.331Z,15.00
2017-08-29T02:39:41.531Z,15.09
2017-08-29T02:42:07.764Z,15.12
2017-08-29T02:44:33.991Z,14.91
2017-08-29T02:47:00.193Z,14.99
2017-08-29T02:49:26.515Z,14.99
2017-08-29T02:51:52.725Z,14.91
2017-08-29T02:54:18.941Z,14.97
2017-08-29T02:56:45.160Z,14.98
2017-08-29T02:59:11.371Z,14.94
2017-08-29T03:01:37.594Z,15.02
2017-08-29T03:04:03.840Z,15.01
2017-08-29T03:06:30.054Z,14.99
2017-08-29T03:08:56.799Z,15.03
2017-08-29T03:11:22.991Z,15.00
2017-08-29T03:13:49.195Z,15.07
2017-08-29T03:16:15.435Z,14.96
2017-08-29T03:18:41.638Z,14.93
2017-08-29T03:21:07.857Z,14.96
2017-08-29T03:23:34.093Z,14.86
2017-08-29T03:26:00.293Z,14.87
2017-08-29T03:28:26.500Z,14.88
2017-08-29T03:30:52.944Z,14.87
2017-08-29T03:33:19.150Z,14.85
2017-08-29T03:35:45.360Z,14.86
2017-08-29T03:38:11.930Z,14.81
2017-08-29T03:40:38.127Z,14.87
2017-08-29T03:43:04.332Z,14.79
2017-08-29T03:45:30.568Z,14.74
2017-08-29T03:47:56.774Z,14.74
2017-08-29T03:50:22.993Z,14.83
2017-08-29T03:52:49.236Z,14.82
2017-08-29T03:55:15.441Z,14.74
2017-08-29T03:57:41.648Z,14.72
2017-08-29T04:00:07.948Z,14.74
2017-08-29T04:02:34.164Z,14.67
2017-08-29T04:05:00.370Z,14.69
2017-08-29T04:07:26.596Z,14.65
2017-08-29T04:09:52.843Z,14.74
2017-08-29T04:12:19.049Z,14.66
2017-08-29T04:14:45.297Z,14.74
2017-08-29T04:17:11.505Z,14.68
2017-08-29T04:19:37.738Z,14.63
2017-08-29T04:22:03.931Z,14.69
2017-08-29T04:24:30.142Z,14.79
2017-08-29T04:26:56.702Z,14.73
2017-08-29T04:29:22.919Z,14.72
2017-08-29T04:31:49.124Z,14.79
2017-08-29T04:34:16.234Z,14.70
2017-08-29T04:36:43.531Z,14.74
2017-08-29T04:39:11.023Z,14.81
2017-08-29T04:41:38.542Z,14.75
2017-08-29T04:44:05.413Z,14.77
2017-08-29T04:46:32.423Z,14.74
2017-08-29T04:49:00.405Z,14.81
2017-08-29T04:51:27.434Z,14.84
2017-08-29T04:53:54.418Z,14.91
2017-08-29T04:56:24.552Z,14.89
2017-08-29T04:58:51.738Z,14.81
2017-08-29T05:01:20.689Z,14.87
2017-08-29T05:03:49.017Z,14.91
2017-08-29T05:06:15.310Z,14.94
2017-08-29T05:08:41.539Z,14.90
2017-08-29T05:11:07.796Z,14.93
2017-08-29T05:13:34.016Z,14.88
2017-08-29T05:16:00.509Z,15.06
2017-08-29T05:18:27.760Z,15.04
2017-08-29T05:20:53.971Z,15.07
2017-08-29T05:23:20.220Z,15.01
2017-08-29T05:25:46.648Z,15.03
2017-08-29T05:28:12.851Z,15.09
2017-08-29T05:30:39.095Z,15.08
2017-08-29T05:33:05.316Z,15.09
2017-08-29T05:35:31.532Z,15.24
2017-08-29T05:37:57.742Z,15.30
2017-08-29T05:40:23.969Z,15.34
2017-08-29T05:42:50.224Z,15.32
2017-08-29T05:45:16.432Z,15.33
2017-08-29T05:47:42.639Z,15.41
2017-08-29T05:50:09.231Z,15.43
2017-08-29T05:52:35.475Z,15.46
2017-08-29T05:55:01.753Z,15.49
2017-08-29T05:57:28.028Z,15.51
2017-08-29T05:59:54.387Z,15.55
2017-08-29T06:02:20.651Z,15.62
2017-08-29T06:04:46.879Z,15.71
2017-08-29T06:07:13.107Z,15.77
2017-08-29T06:09:39.680Z,15.79
2017-08-29T06:12:05.958Z,15.89
2017-08-29T06:14:32.222Z,15.94
2017-08-29T06:16:58.452Z,15.98
2017-08-29T06:19:24.755Z,16.02
2017-08-29T06:21:50.963Z,16.06
2017-08-29T06:24:17.172Z,16.15
2017-08-29T06:26:43.958Z,16.23
2017-08-29T06:29:10.186Z,16.32
2017-08-29T06:31:36.938Z,16.42
2017-08-29T06:34:03.154Z,16.43
2017-08-29T06:36:29.379Z,16.55
2017-08-29T06:38:55.839Z,16.64
2017-08-29T06:41:22.359Z,16.74
2017-08-29T06:43:48.689Z,16.74
2017-08-29T06:46:15.239Z,16.77
2017-08-29T06:48:41.464Z,16.87
2017-08-29T06:51:07.667Z,16.95
2017-08-29T06:53:34.131Z,17.04
2017-08-29T06:56:00.488Z,17.08
2017-08-29T06:58:26.715Z,17.18
2017-08-29T07:00:52.960Z,17.21
2017-08-29T07:03:19.154Z,17.32
2017-08-29T07:05:45.356Z,17.43
2017-08-29T07:08:11.571Z,17.53
2017-08-29T07:10:37.796Z,17.62
2017-08-29T07:13:04.049Z,17.77
2017-08-29T07:15:30.291Z,17.83
2017-08-29T07:17:56.483Z,17.91
2017-08-29T07:20:22.800Z,18.01
2017-08-29T07:22:49.000Z,18.03
2017-08-29T07:25:15.215Z,18.15
2017-08-29T07:27:41.452Z,18.24
2017-08-29T07:30:07.664Z,18.34
2017-08-29T07:32:34.139Z,18.41
2017-08-29T07:35:00.359Z,18.54
2017-08-29T07:37:26.562Z,18.55
2017-08-29T07:39:53.092Z,18.70
2017-08-29T07:42:19.303Z,18.77
2017-08-29T07:44:45.501Z,18.90
2017-08-29T07:47:11.746Z,18.98
2017-08-29T07:49:37.975Z,19.04
2017-08-29T07:52:04.209Z,19.22
2017-08-29T07:54:30.657Z,19.31
2017-08-29T07:56:56.890Z,19.29
2017-08-29T07:59:23.164Z,19.40
2017-08-29T08:01:49.492Z,19.47
2017-08-29T08:04:15.720Z,19.66
2017-08-29T08:06:41.943Z,19.65
2017-08-29T08:09:08.195Z,19.80
2017-08-29T08:11:34.430Z,19.89
2017-08-29T08:14:00.668Z,20.02
2017-08-29T08:16:27.219Z,20.17
2017-08-29T08:18:53.472Z,20.27
2017-08-29T08:21:19.709Z,20.34
2017-08-29T08:23:45.925Z,20.32
2017-08-29T08:26:12.160Z,20.41
2017-08-29T08:28:38.435Z,20.37
2017-08-29T08:31:04.766Z,20.43
2017-08-29T08:33:30.964Z,20.55
2017-08-29T08:35:57.440Z,20.65
2017-08-29T08:38:23.642Z,20.73
2017-08-29T08:40:49.909Z,20.89
2017-08-29T08:43:16.152Z,21.06
2017-08-29T08:45:42.360Z,21.07
2017-08-29T08:48:08.573Z,21.06
2017-08-29T08:50:35.399Z,21.13
2017-08-29T08:53:01.616Z,21.11
2017-08-29T08:55:27.824Z,21.30
2017-08-29T08:58:01.305Z,21.49
2017-08-29T09:00:27.572Z,21.41
2017-08-29T09:02:53.800Z,21.52
2017-08-29T09:05:20.048Z,21.66
2017-08-29T09:07:46.267Z,21.96
2017-08-29T09:10:12.529Z,22.06
2017-08-29T09:12:38.729Z,22.10
2017-08-29T09:15:04.963Z,22.10
2017-08-29T09:17:31.319Z,22.29
2017-08-29T09:19:57.594Z,22.50
2017-08-29T09:22:23.827Z,22.61
2017-08-29T09:24:50.076Z,22.41
2017-08-29T09:27:16.291Z,22.69
2017-08-29T09:29:42.619Z,22.85
2017-08-29T09:32:08.861Z,22.89
2017-08-29T09:34:35.055Z,23.02
2017-08-29T09:37:01.330Z,22.85
2017-08-29T09:39:27.555Z,22.84
2017-08-29T09:41:53.761Z,23.07
2017-08-29T09:44:19.969Z,23.16
2017-08-29T09:46:46.620Z,23.18
2017-08-29T09:49:12.836Z,23.24
2017-08-29T09:51:39.056Z,23.41
2017-08-29T09:54:05.352Z,23.66
2017-08-29T09:56:31.586Z,23.89
2017-08-29T09:58:57.815Z,23.93
2017-08-29T10:01:24.077Z,23.90
2017-08-29T10:03:50.275Z,23.85
2017-08-29T10:06:16.484Z,23.91
2017-08-29T10:08:42.719Z,24.09
2017-08-29T10:11:08.936Z,24.05
2017-08-29T10:13:35.720Z,23.99
2017-08-29T10:16:02.333Z,24.18
2017-08-29T10:18:28.568Z,24.34
2017-08-29T10:20:55.076Z,24.24
2017-08-29T10:23:21.326Z,24.34
2017-08-29T10:25:47.540Z,24.47
2017-08-29T10:28:13.747Z,24.52
2017-08-29T10:30:39.997Z,24.35
2017-08-29T10:33:06.444Z,24.31
2017-08-29T10:35:33.000Z,24.54
2017-08-29T10:37:59.374Z,24.53
2017-08-29T10:40:25.698Z,24.84
2017-08-29T10:42:51.908Z,25.00
2017-08-29T10:45:18.173Z,24.90
2017-08-29T10:47:44.407Z,25.23
2017-08-29T10:50:10.646Z,25.07
2017-08-29T10:52:36.892Z,25.04
2017-08-29T10:55:03.259Z,25.15
2017-08-29T10:57:29.518Z,25.36
2017-08-29T10:59:55.735Z,25.27
2017-08-29T11:02:21.958Z,25.10
2017-08-29T11:04:48.872Z,25.03
2017-08-29T11:07:15.102Z,25.16
2017-08-29T11:09:41.331Z,25.49
2017-08-29T11:12:07.548Z,25.72
2017-08-29T11:14:33.815Z,25.82
2017-08-29T11:17:00.031Z,25.84
2017-08-29T11:19:26.258Z,25.34
2017-08-29T11:21:52.525Z,25.58
2017-08-29T11:24:18.778Z,25.74
2017-08-29T11:26:45.075Z,25.79
2017-08-29T11:29:11.728Z,25.81
2017-08-29T11:31:37.951Z,26.00
2017-08-29T11:34:04.182Z,25.93
2017-08-29T11:36:30.467Z,25.88
2017-08-29T11:38:56.694Z,25.91
2017-08-29T11:41:22.918Z,26.13
2017-08-29T11:43:49.171Z,26.17
2017-08-29T11:46:15.395Z,26.37
2017-08-29T11:48:41.654Z,26.42
2017-08-29T11:51:07.892Z,26.37
2017-08-29T11:53:34.139Z,26.43
2017-08-29T11:56:00.384Z,26.53
2017-08-29T11:58:26.700Z,26.65
2017-08-29T12:00:52.981Z,26.53
2017-08-29T12:03:19.224Z,26.67
2017-08-29T12:05:45.466Z,26.96
2017-08-29T12:08:11.724Z,27.17
2017-08-29T12:10:37.975Z,27.35
2017-08-29T12:13:04.187Z,27.77
2017-08-29T12:15:30.404Z,27.78
2017-08-29T12:17:56.644Z,28.06
2017-08-29T12:20:22.874Z,28.39
2017-08-29T12:22:49.316Z,28.51
2017-08-29T12:25:15.655Z,28.68
2017-08-29T12:27:41.855Z,28.85
2017-08-29T12:30:08.078Z,29.19
2017-08-29T12:32:34.777Z,29.06
2017-08-29T12:35:00.990Z,29.75
2017-08-29T12:37:27.215Z,30.10
2017-08-29T12:39:53.535Z,29.95
2017-08-29T12:42:19.743Z,29.58
2017-08-29T12:44:45.976Z,30.15
2017-08-29T12:47:12.252Z,30.29
2017-08-29T12:49:38.476Z,30.44
2017-08-29T12:52:04.699Z,30.25
2017-08-29T12:54:30.937Z,30.16
2017-08-29T12:56:57.195Z,30.43
2017-08-29T12:59:23.426Z,31.12
2017-08-29T13:01:49.669Z,31.32
2017-08-29T13:04:15.902Z,31.32
2017-08-29T13:06:42.117Z,31.10
2017-08-29T13:09:08.333Z,30.94
2017-08-29T13:11:34.668Z,31.28
2017-08-29T13:14:00.887Z,31.32
2017-08-29T13:16:27.092Z,30.99
2017-08-29T13:18:53.340Z,31.56
2017-08-29T13:21:19.564Z,31.86
2017-08-29T13:23:45.800Z,32.18
2017-08-29T13:26:12.092Z,31.24
2017-08-29T13:28:38.299Z,31.56
2017-08-29T13:31:04.512Z,31.83
2017-08-29T13:33:32.583Z,32.20
2017-08-29T13:35:58.787Z,31.69
2017-08-29T13:38:24.991Z,31.74
2017-08-29T13:40:51.222Z,31.85
2017-08-29T13:43:17.439Z,31.40
2017-08-29T13:45:43.651Z,31.70
2017-08-29T13:48:10.093Z,32.19
2017-08-29T13:50:36.293Z,32.15
2017-08-29T13:53:02.535Z,31.79
2017-08-29T13:55:28.749Z,32.03
2017-08-29T13:57:54.951Z,31.78
2017-08-29T14:00:21.172Z,31.59
2017-08-29T14:02:47.408Z,31.08
2017-08-29T14:05:20.678Z,31.72
2017-08-29T14:07:46.906Z,31.71
2017-08-29T14:10:13.167Z,31.54
2017-08-29T14:12:39.388Z,31.88
2017-08-29T14:15:05.632Z,31.36
2017-08-29T14:17:31.971Z,31.95
2017-08-29T14:19:58.230Z,32.47
2017-08-29T14:22:24.516Z,31.49
2017-08-29T14:24:50.760Z,31.49
2017-08-29T14:27:17.002Z,31.51
2017-08-29T14:29:44.471Z,31.43
2017-08-29T14:32:18.592Z,31.20
2017-08-29T14:34:53.228Z,31.70
2017-08-29T14:37:20.617Z,31.79
2017-08-29T14:39:47.828Z,31.24
2017-08-29T14:42:15.372Z,31.24
2017-08-29T14:44:42.690Z,31.15
2017-08-29T14:47:28.156Z,30.39
2017-08-29T14:49:56.539Z,29.61
2017-08-29T14:52:23.939Z,29.52
2017-08-29T14:54:51.366Z,29.30
2017-08-29T14:57:19.569Z,29.25
2017-08-29T14:59:46.745Z,28.77
2017-08-29T15:02:14.950Z,28.88
2017-08-29T15:04:42.181Z,28.86
2017-08-29T15:07:09.435Z,28.79
2017-08-29T15:09:36.563Z,28.87
2017-08-29T15:12:04.072Z,28.79
2017-08-29T15:14:31.131Z,28.54
2017-08-29T15:17:00.419Z,28.41
2017-08-29T15:19:27.896Z,28.64
2017-08-29T15:21:56.731Z,28.46
2017-08-29T15:24:25.034Z,28.38
2017-08-29T15:26:52.408Z,28.33
2017-08-29T15:29:19.746Z,28.19
2017-08-29T15:31:47.826Z,28.12
2017-08-29T15:34:15.193Z,28.02
2017-08-29T15:36:42.674Z,27.91
2017-08-29T15:39:10.528Z,27.86
2017-08-29T15:41:37.785Z,27.71
2017-08-29T15:44:05.365Z,27.78
2017-08-29T15:46:32.732Z,27.73
2017-08-29T15:49:00.032Z,27.79
2017-08-29T15:51:29.184Z,27.72
2017-08-29T15:53:56.516Z,27.63
2017-08-29T15:56:23.691Z,27.63
2017-08-29T15:58:51.612Z,27.63
2017-08-29T16:01:19.070Z,27.62
2017-08-29T16:03:47.538Z,27.50
2017-08-29T16:06:14.960Z,27.57
2017-08-29T16:08:42.306Z,27.59
2017-08-29T16:11:10.514Z,27.64
2017-08-29T16:13:38.635Z,27.46
2017-08-29T16:16:06.015Z,27.49
2017-08-29T16:18:33.586Z,27.37
2017-08-29T16:21:01.015Z,27.34
2017-08-29T16:23:28.338Z,27.24
2017-08-29T16:25:55.868Z,27.15
2017-08-29T16:28:23.741Z,27.00
2017-08-29T16:30:51.607Z,27.02
2017-08-29T16:33:22.138Z,26.90
2017-08-29T16:35:50.206Z,26.91
2017-08-29T16:38:18.074Z,26.95
2017-08-29T16:40:46.472Z,26.98
2017-08-29T16:43:14.658Z,27.00
2017-08-29T16:45:42.439Z,26.97
2017-08-29T16:48:10.842Z,26.96
2017-08-29T16:50:39.387Z,26.94
2017-08-29T16:53:07.706Z,26.96
2017-08-29T16:55:36.834Z,26.97
2017-08-29T16:58:04.808Z,26.96
2017-08-29T17:00:32.691Z,26.84
2017-08-29T17:03:00.023Z,26.85
2017-08-29T17:05:27.596Z,26.75
2017-08-29T17:07:55.348Z,26.67
2017-08-29T17:10:22.660Z,26.68
2017-08-29T17:12:51.347Z,26.65
2017-08-29T17:15:18.873Z,26.65
2017-08-29T17:17:47.071Z,26.63
2017-08-29T17:20:14.579Z,26.56
2017-08-29T17:22:42.778Z,26.47
2017-08-29T17:25:10.262Z,26.45
2017-08-29T17:27:39.664Z,26.42
2017-08-29T17:30:09.280Z,26.39
2017-08-29T17:32:36.736Z,26.33
2017-08-29T17:35:05.073Z,26.26
2017-08-29T17:37:32.681Z,26.23
2017-08-29T17:40:00.721Z,26.20
2017-08-29T17:42:29.057Z,26.15
2017-08-29T17:44:56.437Z,26.12
2017-08-29T17:47:24.951Z,26.10
2017-08-29T17:49:53.507Z,26.04
2017-08-29T17:52:22.142Z,25.96
2017-08-29T17:54:49.832Z,25.89
2017-08-29T17:57:17.465Z,25.86
2017-08-29T17:59:45.888Z,25.83
2017-08-29T18:02:14.207Z,25.76
2017-08-29T18:04:41.718Z,25.72
2017-08-29T18:07:08.969Z,25.67
2017-08-29T18:09:36.609Z,25.63
2017-08-29T18:12:04.996Z,25.55
2017-08-29T18:14:32.337Z,25.50
2017-08-29T18:17:00.101Z,25.45
2017-08-29T18:19:28.327Z,25.37
2017-08-29T18:21:55.749Z,25.31
2017-08-29T18:24:23.003Z,25.26
2017-08-29T18:26:50.443Z,25.19
2017-08-29T18:29:18.116Z,25.09
2017-08-29T18:31:45.431Z,25.06
2017-08-29T18:34:12.932Z,25.03
2017-08-29T18:36:40.520Z,24.99
2017-08-29T18:39:07.875Z,24.93
2017-08-29T18:41:35.251Z,24.85
2017-08-29T18:44:02.549Z,24.81
2017-08-29T18:46:30.080Z,24.76
2017-08-29T18:48:57.457Z,24.64
2017-08-29T18:51:24.699Z,24.51
2017-08-29T18:53:52.989Z,24.47
2017-08-29T18:56:21.248Z,24.47
2017-08-29T18:58:48.856Z,24.46
2017-08-29T19:01:17.436Z,24.40
2017-08-29T19:03:45.061Z,24.36
2017-08-29T19:06:12.402Z,24.27
2017-08-29T19:08:42.958Z,24.21
2017-08-29T19:11:11.336Z,24.17
2017-08-29T19:13:38.848Z,24.16
2017-08-29T19:16:06.771Z,24.13
2017-08-29T19:18:35.397Z,24.13
2017-08-29T19:21:08.530Z,24.05
2017-08-29T19:23:40.872Z,24.02
2017-08-29T19:26:11.225Z,23.97
2017-08-29T19:34:45.323Z,23.81
2017-08-29T19:37:12.770Z,23.79
2017-08-29T19:39:40.038Z,23.75
2017-08-29T19:42:07.821Z,23.69
2017-08-29T19:44:35.429Z,23.67
2017-08-29T19:47:03.700Z,23.65
2017-08-29T19:49:32.196Z,23.65
2017-08-29T19:51:59.701Z,23.64
2017-08-29T19:54:27.613Z,23.62
2017-08-29T19:56:55.682Z,23.56
2017-08-29T19:59:23.202Z,23.51
2017-08-29T20:01:50.717Z,23.47
2017-08-29T20:04:19.761Z,23.44
2017-08-29T20:06:47.260Z,23.36
2017-08-29T20:09:13.745Z,23.36
2017-08-29T20:11:40.102Z,23.32
2017-08-29T20:14:06.378Z,23.31
2017-08-29T20:16:32.666Z,23.35
2017-08-29T20:18:59.622Z,23.34
2017-08-29T20:21:25.872Z,23.35
2017-08-29T20:23:52.131Z,23.34
2017-08-29T20:26:18.777Z,23.32
2017-08-29T20:28:45.032Z,23.31
2017-08-29T20:31:11.271Z,23.28
2017-08-29T20:33:37.520Z,23.26
2017-08-29T20:36:03.797Z,23.21
2017-08-29T20:38:30.040Z,23.23
2017-08-29T20:40:56.512Z,23.26
2017-08-29T20:43:22.868Z,23.23
2017-08-29T20:45:49.215Z,23.22
2017-08-29T20:48:15.752Z,23.17
2017-08-29T20:50:42.123Z,23.18
2017-08-29T20:53:08.456Z,23.15
2017-08-29T20:55:35.718Z,23.13
2017-08-29T20:58:02.088Z,23.14
2017-08-29T21:00:28.551Z,23.09
2017-08-29T21:02:54.960Z,23.03
2017-08-29T21:05:22.580Z,22.95
2017-08-29T21:07:48.992Z,22.86
2017-08-29T21:10:15.343Z,22.86
2017-08-29T21:12:42.545Z,22.77
2017-08-29T21:15:08.910Z,22.67
2017-08-29T21:17:35.889Z,22.61
2017-08-29T21:20:03.176Z,22.58
2017-08-29T21:22:32.036Z,22.53
2017-08-29T21:24:59.121Z,22.52
2017-08-29T21:27:25.357Z,22.46
2017-08-29T21:29:51.593Z,22.45
2017-08-29T21:32:18.089Z,22.41
2017-08-29T21:34:44.385Z,22.41
2017-08-29T21:37:10.993Z,22.36
2017-08-29T21:39:37.261Z,22.30
2017-08-29T21:42:03.637Z,22.30
2017-08-29T21:44:30.009Z,22.32
2017-08-29T21:46:56.272Z,22.37
2017-08-29T21:49:22.536Z,22.36
2017-08-29T21:51:48.765Z,22.32
2017-08-29T21:54:15.028Z,22.28
2017-08-29T21:56:41.292Z,22.25
2017-08-29T21:59:07.560Z,22.16
2017-08-29T22:01:33.901Z,22.10
2017-08-29T22:04:00.153Z,22.12
2017-08-29T22:06:26.753Z,22.17
2017-08-29T22:08:52.981Z,22.12
2017-08-29T22:11:19.248Z,22.08
2017-08-29T22:13:45.637Z,22.08
2017-08-29T22:16:11.870Z,21.96
2017-08-29T22:18:38.127Z,21.87
2017-08-29T22:21:04.392Z,21.89
2017-08-29T22:23:30.613Z,21.79
2017-08-29T22:25:56.861Z,21.78
2017-08-29T22:28:23.160Z,21.77
2017-08-29T22:30:49.365Z,21.74
2017-08-29T22:33:15.697Z,21.71
2017-08-29T22:35:42.311Z,21.71
2017-08-29T22:38:09.308Z,21.68
2017-08-29T22:40:35.721Z,21.71
2017-08-29T22:43:01.968Z,21.68
2017-08-29T22:45:28.208Z,21.70
2017-08-29T22:47:54.441Z,21.68
2017-08-29T22:50:20.856Z,21.66
2017-08-29T22:52:47.077Z,21.62
2017-08-29T22:55:13.304Z,21.56
2017-08-29T22:57:39.520Z,21.36
2017-08-29T23:00:05.827Z,21.28
2017-08-29T23:02:32.082Z,21.28
2017-08-29T23:04:58.325Z,21.17
2017-08-29T23:07:24.548Z,21.21
2017-08-29T23:09:50.816Z,21.12
2017-08-29T23:12:17.103Z,21.07
2017-08-29T23:14:43.326Z,21.12
2017-08-29T23:17:09.566Z,21.08
2017-08-29T23:19:36.551Z,21.04
2017-08-29T23:22:02.829Z,20.78
2017-08-29T23:24:29.067Z,20.83
2017-08-29T23:26:55.300Z,20.95
2017-08-29T23:29:21.868Z,20.95
2017-08-29T23:31:48.464Z,20.97
2017-08-29T23:34:14.829Z,20.98
2017-08-29T23:36:41.266Z,20.89
2017-08-29T23:39:07.814Z,21.01
2017-08-29T23:41:34.063Z,20.97
2017-08-29T23:44:00.300Z,21.05
2017-08-29T23:46:26.593Z,20.93
2017-08-29T23:48:52.836Z,20.87
2017-08-29T23:51:19.115Z,20.90
2017-08-29T23:53:45.405Z,20.88
2017-08-29T23:56:11.631Z,20.89
2017-08-29T23:58:37.902Z,20.94
